createdAt,value
2023-01-08T00:04:01.078Z,90.32
2023-01-08T00:08:03.585Z,90.26
2023-01-08T00:12:05.551Z,90.16
2023-01-08T00:16:12.913Z,90.04
2023-01-08T00:20:15.076Z,89.46
2023-01-08T00:24:16.861Z,89.86
2023-01-08T00:28:20.544Z,89.43
2023-01-08T00:32:22.402Z,89.78
2023-01-08T00:36:24.194Z,89.51
2023-01-08T00:40:25.982Z,89.77
2023-01-08T00:44:27.724Z,89.40
2023-01-08T00:48:29.742Z,89.67
2023-01-08T00:52:31.471Z,89.78
2023-01-08T00:56:33.251Z,90.07
2023-01-08T01:00:35.024Z,89.74
2023-01-08T01:04:37.010Z,89.88
2023-01-08T01:08:39.032Z,90.41
2023-01-08T01:12:41.237Z,90.48
2023-01-08T01:16:43.907Z,90.72
2023-01-08T01:20:45.734Z,90.69
2023-01-08T01:24:47.559Z,90.72
2023-01-08T01:28:51.980Z,90.77
2023-01-08T01:32:53.662Z,90.85
2023-01-08T01:36:55.426Z,91.33
2023-01-08T01:40:57.288Z,91.11
2023-01-08T01:44:59.230Z,91.43
2023-01-08T01:49:06.198Z,91.45
2023-01-08T01:53:29.555Z,91.37
2023-01-08T01:57:33.075Z,91.62
2023-01-08T02:01:35.355Z,91.80
2023-01-08T02:06:03.668Z,91.58
2023-01-08T02:10:22.299Z,91.98
2023-01-08T02:14:30.235Z,92.16
2023-01-08T02:18:48.835Z,91.83
2023-01-08T02:23:01.776Z,91.78
2023-01-08T02:27:05.462Z,92.11
2023-01-08T02:31:07.759Z,92.15
2023-01-08T02:35:10.652Z,91.96
2023-01-08T02:39:51.552Z,92.42
2023-01-08T02:43:57.493Z,92.01
2023-01-08T02:48:02.188Z,92.40
2023-01-08T02:52:06.730Z,91.99
2023-01-08T02:56:15.813Z,92.43
2023-01-08T03:00:18.682Z,92.33
2023-01-08T03:04:22.916Z,92.04
2023-01-08T03:08:26.213Z,91.71
2023-01-08T03:12:43.481Z,91.34
2023-01-08T03:16:49.295Z,91.32
2023-01-08T03:20:51.430Z,91.18
2023-01-08T03:24:54.616Z,91.03
2023-01-08T03:28:57.887Z,90.59
2023-01-08T03:33:01.575Z,90.46
2023-01-08T03:37:07.716Z,90.21
2023-01-08T03:41:16.722Z,90.22
2023-01-08T03:45:19.098Z,89.89
2023-01-08T03:49:22.944Z,90.08
2023-01-08T03:53:24.707Z,89.35
2023-01-08T03:57:26.605Z,89.79
2023-01-08T04:01:28.571Z,89.79
2023-01-08T04:05:30.400Z,89.56
2023-01-08T04:09:32.111Z,89.78
2023-01-08T04:13:33.848Z,89.57
2023-01-08T04:17:35.554Z,89.71
2023-01-08T04:21:37.243Z,90.08
2023-01-08T04:25:38.980Z,89.52
2023-01-08T04:29:43.007Z,89.68
2023-01-08T04:33:44.775Z,89.71
2023-01-08T04:37:46.502Z,89.75
2023-01-08T04:41:48.212Z,89.92
2023-01-08T04:45:50.020Z,89.22
2023-01-08T04:49:51.740Z,89.29
2023-01-08T04:53:53.535Z,89.33
2023-01-08T04:57:55.318Z,88.96
2023-01-08T05:01:57.252Z,88.96
2023-01-08T05:06:01.060Z,89.05
2023-01-08T05:10:03.168Z,89.13
2023-01-08T05:14:04.983Z,89.54
2023-01-08T05:18:06.745Z,89.80
2023-01-08T05:22:08.487Z,89.94
2023-01-08T05:26:10.555Z,90.28
2023-01-08T05:30:12.947Z,90.41
2023-01-08T05:34:14.637Z,90.65
2023-01-08T05:38:16.469Z,90.74
2023-01-08T05:42:18.231Z,90.82
2023-01-08T05:46:20.020Z,90.81
2023-01-08T05:50:21.876Z,90.50
2023-01-08T05:54:23.661Z,90.93
2023-01-08T05:58:27.295Z,90.97
2023-01-08T06:02:29.033Z,90.83
2023-01-08T06:06:30.812Z,90.55
2023-01-08T06:10:32.816Z,90.46
2023-01-08T06:14:34.528Z,90.18
2023-01-08T06:18:36.518Z,90.44
2023-01-08T06:22:38.300Z,90.00
2023-01-08T06:26:40.065Z,89.95
2023-01-08T06:30:41.838Z,89.97
2023-01-08T06:34:43.559Z,90.26
2023-01-08T06:38:45.254Z,90.99
2023-01-08T06:42:47.544Z,90.77
2023-01-08T06:46:49.237Z,90.95
2023-01-08T06:50:51.460Z,91.30
2023-01-08T06:54:53.261Z,91.61
2023-01-08T06:58:54.976Z,91.28
2023-01-08T07:02:56.906Z,91.79
2023-01-08T07:06:58.741Z,91.84
2023-01-08T07:11:04.055Z,91.47
2023-01-08T07:15:06.815Z,91.44
2023-01-08T07:19:08.572Z,91.60
2023-01-08T07:23:12.075Z,91.64
2023-01-08T07:27:13.759Z,91.51
2023-01-08T07:31:15.488Z,91.21
2023-01-08T07:35:17.364Z,91.61
2023-01-08T07:39:19.072Z,91.44
2023-01-08T07:43:20.866Z,91.58
2023-01-08T07:47:22.597Z,91.22
2023-01-08T07:51:24.281Z,91.29
2023-01-08T07:55:26.921Z,91.43
2023-01-08T07:59:28.657Z,91.37
2023-01-08T08:03:30.513Z,91.67
2023-01-08T08:07:32.613Z,91.35
2023-01-08T08:11:34.288Z,91.10
2023-01-08T08:15:37.377Z,91.02
2023-01-08T08:19:39.046Z,91.04
2023-01-08T08:23:40.791Z,91.19
2023-01-08T08:27:43.514Z,90.96
2023-01-08T08:31:45.274Z,91.27
2023-01-08T08:35:51.738Z,90.95
2023-01-08T08:39:53.621Z,91.43
2023-01-08T08:43:55.328Z,91.36
2023-01-08T08:47:57.166Z,91.37
2023-01-08T08:51:58.917Z,91.23
2023-01-08T08:56:00.621Z,90.74
2023-01-08T09:00:02.632Z,90.77
2023-01-08T09:04:04.382Z,90.92
2023-01-08T09:08:06.460Z,90.66
2023-01-08T09:12:08.380Z,90.48
2023-01-08T09:16:10.128Z,90.26
2023-01-08T09:20:12.260Z,90.14
2023-01-08T09:24:14.023Z,90.13
2023-01-08T09:28:17.277Z,90.22
2023-01-08T09:32:19.011Z,90.42
2023-01-08T09:36:20.788Z,90.34
2023-01-08T09:40:24.790Z,90.20
2023-01-08T09:44:34.002Z,90.33
2023-01-08T09:48:40.810Z,90.08
2023-01-08T09:52:43.820Z,89.99
2023-01-08T09:56:45.829Z,89.99
2023-01-08T10:00:47.546Z,90.24
2023-01-08T10:05:00.745Z,89.76
2023-01-08T10:09:03.267Z,89.96
2023-01-08T10:13:05.671Z,90.14
2023-01-08T10:17:25.547Z,89.67
2023-01-08T10:21:41.370Z,89.89
2023-01-08T10:25:51.026Z,89.51
2023-01-08T10:29:52.853Z,89.65
2023-01-08T10:33:54.567Z,89.16
2023-01-08T10:37:56.749Z,89.14
2023-01-08T10:42:05.628Z,88.87
2023-01-08T10:46:15.048Z,88.74
2023-01-08T10:50:22.602Z,88.53
2023-01-08T10:54:39.763Z,88.26
2023-01-08T10:58:42.443Z,88.52
2023-01-08T11:02:50.520Z,88.43
2023-01-08T11:06:52.369Z,88.39
2023-01-08T11:10:59.457Z,88.36
2023-01-08T11:15:01.964Z,88.32
2023-01-08T11:19:04.709Z,88.20
2023-01-08T11:23:21.487Z,87.67
2023-01-08T11:27:42.824Z,87.32
2023-01-08T11:31:44.514Z,87.46
2023-01-08T11:35:53.040Z,87.04
2023-01-08T11:39:56.784Z,86.35
2023-01-08T11:44:13.544Z,86.56
2023-01-08T11:48:31.919Z,86.04
2023-01-08T11:53:03.238Z,85.55
2023-01-08T11:57:46.910Z,85.95
2023-01-08T12:02:26.037Z,85.95
2023-01-08T12:06:47.736Z,85.84
2023-01-08T12:10:58.259Z,85.98
2023-01-08T12:15:21.081Z,85.90
2023-01-08T12:19:38.052Z,85.50
2023-01-08T12:24:04.107Z,85.36
2023-01-08T12:28:27.618Z,85.02
2023-01-08T12:32:43.924Z,84.65
2023-01-08T12:37:03.104Z,84.97
2023-01-08T12:41:12.758Z,85.03
2023-01-08T12:45:26.227Z,84.26
2023-01-08T12:49:43.278Z,84.49
2023-01-08T12:54:03.153Z,84.37
2023-01-08T12:58:17.543Z,83.66
2023-01-08T13:02:44.520Z,83.43
2023-01-08T13:07:03.473Z,83.17
2023-01-08T13:11:07.317Z,82.84
2023-01-08T13:15:19.738Z,83.38
2023-01-08T13:19:29.129Z,83.39
2023-01-08T13:23:35.788Z,83.50
2023-01-08T13:27:37.624Z,82.92
2023-01-08T13:31:41.479Z,83.03
2023-01-08T13:35:43.320Z,83.00
2023-01-08T13:39:45.033Z,82.83
2023-01-08T13:43:49.275Z,82.65
2023-01-08T13:47:51.192Z,82.70
2023-01-08T13:51:53.037Z,82.57
2023-01-08T13:56:01.024Z,82.69
2023-01-08T14:00:06.379Z,82.15
2023-01-08T14:04:08.672Z,82.33
2023-01-08T14:08:21.947Z,82.05
2023-01-08T14:12:25.154Z,81.60
2023-01-08T14:16:27.043Z,81.75
2023-01-08T14:20:33.471Z,81.65
2023-01-08T14:24:35.785Z,81.38
2023-01-08T14:28:37.604Z,81.59
2023-01-08T14:32:43.409Z,81.41
2023-01-08T14:36:46.051Z,81.57
2023-01-08T14:41:01.416Z,81.77
2023-01-08T14:45:14.984Z,81.69
2023-01-08T14:49:27.760Z,81.64
2023-01-08T14:53:36.718Z,81.09
2023-01-08T14:57:38.485Z,81.45
2023-01-08T15:01:40.633Z,80.97
2023-01-08T15:05:49.513Z,81.31
2023-01-08T15:09:59.672Z,81.39
2023-01-08T15:14:13.309Z,81.44
2023-01-08T15:18:15.134Z,81.47
2023-01-08T15:22:21.188Z,81.94
2023-01-08T15:26:24.477Z,82.19
2023-01-08T15:30:37.269Z,82.23
2023-01-08T15:34:38.966Z,82.18
2023-01-08T15:38:43.013Z,82.48
2023-01-08T15:43:03.393Z,82.35
2023-01-08T15:47:05.230Z,82.28
2023-01-08T15:51:07.473Z,82.56
2023-01-08T15:55:21.759Z,82.44
2023-01-08T15:59:23.690Z,82.78
2023-01-08T16:03:25.980Z,82.67
2023-01-08T16:07:27.769Z,82.67
2023-01-08T16:11:29.507Z,82.58
2023-01-08T16:15:31.421Z,82.50
2023-01-08T16:19:33.755Z,82.67
2023-01-08T16:23:36.918Z,82.83
2023-01-08T16:27:39.596Z,82.46
2023-01-08T16:31:48.283Z,82.54
2023-01-08T16:36:16.138Z,81.92
2023-01-08T16:40:18.001Z,82.03
2023-01-08T16:44:23.192Z,81.76
2023-01-08T16:48:24.947Z,82.01
2023-01-08T16:52:26.646Z,81.85
2023-01-08T16:56:28.513Z,82.12
2023-01-08T17:00:31.521Z,82.12
2023-01-08T17:04:33.343Z,81.73
2023-01-08T17:08:40.134Z,82.20
2023-01-08T17:12:42.120Z,82.14
2023-01-08T17:16:45.503Z,81.85
2023-01-08T17:20:53.875Z,81.40
2023-01-08T17:24:55.498Z,81.60
2023-01-08T17:28:57.252Z,81.77
2023-01-08T17:32:59.055Z,82.02
2023-01-08T17:37:00.918Z,81.92
2023-01-08T17:41:02.923Z,81.91
2023-01-08T17:45:06.897Z,82.00
2023-01-08T17:49:11.402Z,82.27
2023-01-08T17:53:13.563Z,82.09
2023-01-08T17:57:17.063Z,82.23
2023-01-08T18:01:19.770Z,82.31
2023-01-08T18:05:21.564Z,82.48
2023-01-08T18:09:23.379Z,82.58
2023-01-08T18:13:25.139Z,82.68
2023-01-08T18:17:27.105Z,82.94
2023-01-08T18:21:29.324Z,83.37
2023-01-08T18:25:31.035Z,83.55
2023-01-08T18:29:33.247Z,83.07
2023-01-08T18:33:35.774Z,83.68
2023-01-08T18:37:37.510Z,83.28
2023-01-08T18:41:57.794Z,83.80
2023-01-08T18:46:00.968Z,83.84
2023-01-08T18:50:03.519Z,83.73
2023-01-08T18:54:05.399Z,83.61
2023-01-08T18:58:07.187Z,84.01
2023-01-08T19:02:27.865Z,84.23
2023-01-08T19:06:29.674Z,83.96
2023-01-08T19:10:31.495Z,84.17
2023-01-08T19:14:33.271Z,84.31
2023-01-08T19:18:35.548Z,84.11
2023-01-08T19:22:37.400Z,84.63
2023-01-08T19:26:39.256Z,84.77
2023-01-08T19:30:41.135Z,84.35
2023-01-08T19:34:43.607Z,84.67
2023-01-08T19:38:45.494Z,84.79
2023-01-08T19:43:05.980Z,84.51
2023-01-08T19:47:08.623Z,84.59
2023-01-08T19:51:11.956Z,84.64
2023-01-08T19:55:13.712Z,84.87
2023-01-08T19:59:15.683Z,84.85
2023-01-08T20:03:21.668Z,84.43
2023-01-08T20:07:23.396Z,84.51
2023-01-08T20:11:26.135Z,84.84
2023-01-08T20:15:29.104Z,84.82
2023-01-08T20:19:30.877Z,85.04
2023-01-08T20:23:33.179Z,85.44
2023-01-08T20:27:34.912Z,85.47
2023-01-08T20:31:37.365Z,85.99
2023-01-08T20:35:39.184Z,85.75
2023-01-08T20:39:41.063Z,86.22
2023-01-08T20:43:42.931Z,86.29
2023-01-08T20:47:44.818Z,85.84
2023-01-08T20:51:58.048Z,85.93
2023-01-08T20:56:06.023Z,85.99
2023-01-08T21:00:08.617Z,85.84
2023-01-08T21:04:10.587Z,85.82
2023-01-08T21:08:12.479Z,86.38
2023-01-08T21:12:15.141Z,86.35
2023-01-08T21:16:28.596Z,87.01
2023-01-08T21:20:30.415Z,86.86
2023-01-08T21:24:32.195Z,87.18
2023-01-08T21:28:34.558Z,87.27
2023-01-08T21:32:37.279Z,88.39
2023-01-08T21:36:39.421Z,88.26
2023-01-08T21:40:41.198Z,88.39
2023-01-08T21:45:01.632Z,88.70
2023-01-08T21:49:03.342Z,88.78
2023-01-08T21:53:23.824Z,88.78
2023-01-08T21:57:28.006Z,89.46
2023-01-08T22:01:29.949Z,89.18
2023-01-08T22:05:31.757Z,89.87
2023-01-08T22:09:33.559Z,89.92
2023-01-08T22:13:36.651Z,89.64
2023-01-08T22:17:38.383Z,90.19
2023-01-08T22:21:40.095Z,90.04
2023-01-08T22:25:41.830Z,90.17
2023-01-08T22:29:43.558Z,90.79
2023-01-08T22:33:45.310Z,90.77
2023-01-08T22:37:47.293Z,90.93
2023-01-08T22:41:49.085Z,90.87
2023-01-08T22:45:59.575Z,90.90
2023-01-08T22:50:01.460Z,90.78
2023-01-08T22:54:03.636Z,90.96
2023-01-08T22:58:05.404Z,90.94
2023-01-08T23:02:07.174Z,91.06
2023-01-08T23:06:13.683Z,91.00
2023-01-08T23:10:15.720Z,90.84
2023-01-08T23:14:17.521Z,91.16
2023-01-08T23:18:19.317Z,90.38
2023-01-08T23:22:21.163Z,90.58
2023-01-08T23:26:26.335Z,90.67
2023-01-08T23:30:32.062Z,90.56
2023-01-08T23:34:33.866Z,90.39
2023-01-08T23:38:35.857Z,90.28
2023-01-08T23:42:37.602Z,90.00
2023-01-08T23:46:39.631Z,90.23
2023-01-08T23:50:41.363Z,90.01
2023-01-08T23:54:43.105Z,89.80
2023-01-08T23:58:45.834Z,89.70
